Time;durP1;ratioP1;P1;durP2;ratioP2;P2;SDS_P1;SDS_P2;PMS_P1;PMS_P2;Temp;Humidity;BMP_temperature;BMP_pressure;BME280_temperature;BME280_humidity;BME280_pressure;Samples;Min_cycle;Max_cycle;Signal;HPM_P1;HPM_P2
2023/11/15 00:01:13;;;;;;;11.60;1.80;;;;;;;9.56;88.29;98811.05;109789;1285;22166;-76
2023/11/15 00:04:19;;;;;;;5.30;1.10;;;;;;;9.57;88.30;98809.74;109587;1284;22927;-76
2023/11/15 00:06:56;;;;;;;8.70;1.30;;;;;;;9.57;88.38;98810.45;109591;1288;22165;-76
2023/11/15 00:10:31;;;;;;;8.20;1.00;;;;;;;9.58;88.46;98814.90;105584;1286;5469122;-76
2023/11/15 00:13:14;;;;;;;8.10;1.20;;;;;;;9.59;88.59;98814.76;109402;1287;22201;-77
2023/11/15 00:16:10;;;;;;;4.90;0.90;;;;;;;9.61;88.63;98811.30;109390;1290;23899;-76
2023/11/15 00:19:10;;;;;;;6.30;0.90;;;;;;;9.61;88.66;98819.41;109859;1282;22193;-76
2023/11/15 00:21:44;;;;;;;7.70;1.10;;;;;;;9.62;88.50;98819.52;109884;1283;23384;-76
2023/11/15 00:24:47;;;;;;;7.80;1.10;;;;;;;9.62;88.87;98819.32;109869;1278;22481;-77
2023/11/15 00:28:03;;;;;;;5.00;0.80;;;;;;;9.63;89.09;98826.96;109734;1278;22208;-77
2023/11/15 00:30:59;;;;;;;6.80;0.90;;;;;;;9.63;89.24;98825.60;109725;1271;23362;-76
2023/11/15 00:34:19;;;;;;;7.30;0.80;;;;;;;9.63;89.38;98823.93;109526;1287;22275;-79
2023/11/15 00:37:12;;;;;;;5.20;0.90;;;;;;;9.63;89.68;98823.92;109397;1287;22789;-78
2023/11/15 00:40:17;;;;;;;4.60;0.90;;;;;;;9.62;89.85;98829.50;109548;1287;22239;-78
2023/11/15 00:43:12;;;;;;;6.80;0.70;;;;;;;9.61;90.24;98832.89;109574;1283;22227;-78
2023/11/15 00:45:59;;;;;;;3.70;0.70;;;;;;;9.60;90.37;98834.77;109709;1284;23338;-78
2023/11/15 00:48:47;;;;;;;3.30;0.70;;;;;;;9.61;90.61;98839.16;109785;1284;22332;-78
2023/11/15 00:51:22;;;;;;;7.30;0.90;;;;;;;9.62;90.72;98843.54;109802;1270;22239;-78
2023/11/15 00:54:20;;;;;;;4.80;0.70;;;;;;;9.64;90.88;98845.55;109955;1272;22168;-78
2023/11/15 00:57:14;;;;;;;3.80;0.70;;;;;;;9.64;90.82;98850.02;110154;1278;22229;-78
2023/11/15 01:00:23;;;;;;;3.90;0.50;;;;;;;9.63;90.97;98843.54;110302;1274;22230;-78
2023/11/15 01:03:26;;;;;;;3.60;0.50;;;;;;;9.63;91.19;98847.48;110290;1277;22334;-79
2023/11/15 01:06:25;;;;;;;1.80;0.30;;;;;;;9.62;91.14;98850.83;110254;1275;22789;-78
2023/11/15 01:08:59;;;;;;;3.10;0.40;;;;;;;9.62;91.38;98849.11;110253;1277;22191;-77
2023/11/15 01:11:55;;;;;;;4.60;0.50;;;;;;;9.61;91.72;98851.99;110243;1277;22150;-77
2023/11/15 01:14:34;;;;;;;5.70;0.60;;;;;;;9.58;91.90;98845.71;109887;1281;23137;-78
2023/11/15 01:17:33;;;;;;;3.70;0.40;;;;;;;9.56;92.07;98847.32;109326;1274;24197;-78
2023/11/15 01:20:29;;;;;;;5.50;0.50;;;;;;;9.53;92.12;98849.20;109925;1274;22226;-78
2023/11/15 01:23:28;;;;;;;2.70;0.40;;;;;;;9.50;92.44;98856.17;109931;1281;22216;-78
2023/11/15 01:27:21;;;;;;;1.20;0.30;;;;;;;9.48;92.68;98852.59;109965;1276;23523;-79
2023/11/15 01:30:38;;;;;;;3.60;0.40;;;;;;;9.43;92.91;98854.09;109713;1283;22210;-79
2023/11/15 01:34:23;;;;;;;7.50;1.40;;;;;;;9.40;92.90;98856.07;109862;1281;22206;-82
2023/11/15 01:37:28;;;;;;;3.00;0.40;;;;;;;9.37;93.13;98850.39;109745;1285;22268;-80
2023/11/15 01:41:02;;;;;;;1.50;0.30;;;;;;;9.34;93.23;98850.59;109750;1285;23143;-82
2023/11/15 01:44:02;;;;;;;1.20;0.20;;;;;;;9.31;93.16;98845.48;109583;1288;22218;-80
2023/11/15 01:47:04;;;;;;;1.30;0.20;;;;;;;9.29;93.54;98852.77;109375;1290;23269;-81
2023/11/15 01:50:04;;;;;;;1.80;0.10;;;;;;;9.25;93.48;98846.16;109474;1289;22336;-82
2023/11/15 01:52:43;;;;;;;1.60;0.10;;;;;;;9.23;93.51;98851.48;109247;1283;22245;-82
2023/11/15 01:55:35;;;;;;;;;;;;;;;9.21;93.53;98846.62;109399;1289;22452;-80
2023/11/15 01:59:08;;;;;;;1.30;0.30;;;;;;;9.18;93.94;98840.38;109343;1291;23374;-82
2023/11/15 02:02:06;;;;;;;1.00;0.10;;;;;;;9.15;94.01;98845.14;109264;1290;22530;-79
2023/11/15 02:04:54;;;;;;;1.00;0.10;;;;;;;9.12;94.14;98847.21;109008;1294;22238;-79
2023/11/15 02:07:32;;;;;;;1.40;0.20;;;;;;;9.11;94.28;98842.75;109016;1294;22256;-79
2023/11/15 02:10:29;;;;;;;1.40;0.20;;;;;;;9.11;94.38;98842.85;109080;1289;23528;-81
2023/11/15 02:13:03;;;;;;;2.00;0.20;;;;;;;9.10;94.31;98842.90;109571;1287;22391;-79
2023/11/15 02:15:38;;;;;;;2.30;0.10;;;;;;;9.08;94.56;98845.73;109527;1285;22214;-79
2023/11/15 02:18:19;;;;;;;1.40;0.10;;;;;;;9.07;94.63;98843.45;109563;1284;22409;-79
2023/11/15 02:20:56;;;;;;;0.60;0.10;;;;;;;9.07;94.60;98839.50;109677;1286;22230;-79
2023/11/15 02:23:30;;;;;;;1.50;0.10;;;;;;;9.08;94.72;98838.55;110023;1278;22366;-80
2023/11/15 02:26:40;;;;;;;2.20;0.30;;;;;;;9.08;94.72;98841.17;110257;1276;23206;-79
2023/11/15 02:29:18;;;;;;;2.90;0.20;;;;;;;9.06;94.91;98841.17;110257;1278;22164;-79
2023/11/15 02:32:13;;;;;;;1.40;0.20;;;;;;;9.05;94.89;98838.94;110247;1275;22170;-80
2023/11/15 02:34:48;;;;;;;2.80;0.20;;;;;;;9.05;95.20;98844.41;110357;1275;22189;-79
2023/11/15 02:37:25;;;;;;;0.70;0.10;;;;;;;9.03;95.07;98845.52;110456;1257;22340;-77
2023/11/15 02:40:20;;;;;;;1.20;0.10;;;;;;;9.03;95.26;98838.08;110459;1270;22208;-77
2023/11/15 02:42:54;;;;;;;5.10;0.60;;;;;;;9.02;95.27;98840.15;110368;1275;22158;-77
2023/11/15 02:45:43;;;;;;;2.20;0.30;;;;;;;9.00;95.51;98841.45;110463;1275;22147;-76
2023/11/15 02:48:17;;;;;;;3.70;0.20;;;;;;;9.00;95.68;98842.27;110489;1270;22327;-76
2023/11/15 02:51:08;;;;;;;0.90;0.20;;;;;;;9.00;95.70;98838.56;110454;1273;22189;-77
2023/11/15 02:53:45;;;;;;;1.00;0.20;;;;;;;9.02;95.78;98835.95;110051;1279;22944;-76
2023/11/15 02:56:20;;;;;;;1.20;0.20;;;;;;;9.03;95.90;98836.56;110041;1279;23170;-77
2023/11/15 02:58:53;;;;;;;0.90;0.10;;;;;;;9.05;95.92;98837.72;110074;1279;22237;-76
2023/11/15 03:01:31;;;;;;;1.00;0.20;;;;;;;9.07;95.91;98836.61;110019;1279;22188;-76
2023/11/15 03:04:04;;;;;;;2.40;0.10;;;;;;;9.11;96.04;98835.61;110049;1274;22156;-77
2023/11/15 03:06:44;;;;;;;2.40;0.20;;;;;;;9.11;95.99;98836.22;110047;1279;22208;-76
2023/11/15 03:09:18;;;;;;;2.20;0.30;;;;;;;9.14;95.99;98831.46;109948;1273;23518;-76
2023/11/15 03:11:51;;;;;;;2.00;0.30;;;;;;;9.17;96.07;98830.96;110242;1275;22329;-76
2023/11/15 03:14:44;;;;;;;2.50;0.40;;;;;;;9.16;96.13;98838.55;110397;1273;22407;-76
2023/11/15 03:17:19;;;;;;;1.20;0.20;;;;;;;9.16;96.07;98837.70;110445;1275;22315;-76
2023/11/15 03:20:05;;;;;;;3.80;0.30;;;;;;;9.18;96.12;98845.60;110360;1275;23319;-77
2023/11/15 03:22:40;;;;;;;4.20;0.40;;;;;;;9.18;96.11;98848.64;110423;1275;22228;-76
2023/11/15 03:25:23;;;;;;;2.30;0.30;;;;;;;9.16;96.22;98844.23;110384;1273;22167;-77
2023/11/15 03:28:59;;;;;;;3.20;0.40;;;;;;;9.14;96.30;98846.66;110424;1273;22195;-77
2023/11/15 03:32:18;;;;;;;2.30;0.50;;;;;;;9.12;96.40;98845.23;110131;1277;23446;-77
2023/11/15 03:35:55;;;;;;;2.90;0.40;;;;;;;9.10;96.53;98844.01;109869;1275;23088;-77
2023/11/15 03:39:15;;;;;;;1.70;0.30;;;;;;;9.07;96.71;98851.50;109762;1284;22206;-77
2023/11/15 03:42:17;;;;;;;3.50;0.40;;;;;;;9.05;96.86;98855.69;109790;1279;22322;-78
2023/11/15 03:45:32;;;;;;;3.80;0.70;;;;;;;9.05;97.03;98856.50;109772;1276;23093;-78
2023/11/15 03:48:31;;;;;;;3.20;0.60;;;;;;;9.04;97.01;98856.60;109823;1268;22275;-77
2023/11/15 03:51:47;;;;;;;2.00;0.60;;;;;;;9.01;97.14;98857.45;109787;1284;22319;-79
2023/11/15 03:55:01;;;;;;;2.20;0.60;;;;;;;8.99;97.31;98867.26;109957;1281;23042;-77
2023/11/15 03:57:55;;;;;;;3.60;0.90;;;;;;;8.97;97.45;98865.89;110319;1276;22187;-78
2023/11/15 04:01:09;;;;;;;5.10;0.80;;;;;;;8.96;97.53;98865.73;110253;1277;22242;-77
2023/11/15 04:04:46;;;;;;;2.60;0.70;;;;;;;8.95;97.62;98865.64;110359;1276;22275;-77
2023/11/15 04:07:53;;;;;;;2.80;0.60;;;;;;;8.93;97.83;98869.83;109977;1280;22320;-77
2023/11/15 04:11:11;;;;;;;7.20;0.90;;;;;;;8.91;98.06;98871.39;109889;1280;22338;-77
2023/11/15 04:14:26;;;;;;;8.60;1.10;;;;;;;8.91;98.23;98874.27;110000;1274;22316;-77
2023/11/15 04:17:26;;;;;;;5.00;0.90;;;;;;;8.90;98.50;98876.55;109755;1266;22303;-78
2023/11/15 04:20:21;;;;;;;4.10;1.20;;;;;;;8.88;98.46;98878.36;109752;1283;22316;-78
2023/11/15 04:23:37;;;;;;;4.50;0.90;;;;;;;8.86;98.56;98880.08;109704;1285;22254;-77
2023/11/15 04:26:35;;;;;;;4.00;0.60;;;;;;;8.85;98.75;98882.94;109799;1282;22278;-77
2023/11/15 04:29:13;;;;;;;2.90;0.60;;;;;;;8.82;98.89;98879.15;109573;1287;22990;-77
2023/11/15 04:32:10;;;;;;;6.50;0.60;;;;;;;8.80;98.94;98882.83;109573;1287;22215;-78
2023/11/15 04:35:23;;;;;;;4.60;0.40;;;;;;;8.78;98.99;98889.20;109663;1283;22258;-78
2023/11/15 04:38:40;;;;;;;2.70;0.50;;;;;;;8.77;99.21;98892.73;109703;1285;22500;-77
2023/11/15 04:42:35;;;;;;;4.00;0.50;;;;;;;8.76;99.27;98894.60;109401;1286;22209;-78
2023/11/15 04:45:30;;;;;;;4.10;0.50;;;;;;;8.75;99.24;98893.23;109500;1286;22455;-79
2023/11/15 04:48:09;;;;;;;1.20;0.40;;;;;;;8.74;99.45;98899.39;109741;1280;22202;-79
2023/11/15 04:51:12;;;;;;;2.40;0.60;;;;;;;8.74;99.30;98903.02;109762;1283;22358;-79
2023/11/15 04:54:11;;;;;;;2.20;0.40;;;;;;;8.73;99.55;98906.02;109836;1282;22219;-79
2023/11/15 04:56:46;;;;;;;2.60;0.40;;;;;;;8.72;99.63;98908.70;109955;1276;22268;-79
2023/11/15 04:59:25;;;;;;;1.20;0.30;;;;;;;8.72;99.61;98914.46;109963;1274;22350;-79
2023/11/15 05:02:00;;;;;;;2.10;0.40;;;;;;;8.71;99.54;98918.05;109913;1273;22463;-77
2023/11/15 05:04:39;;;;;;;5.40;0.50;;;;;;;8.72;99.62;98924.36;109941;1281;22933;-79
2023/11/15 05:07:57;;;;;;;1.70;0.30;;;;;;;8.73;99.75;98925.19;110210;1277;22265;-80
2023/11/15 05:10:49;;;;;;;2.70;0.40;;;;;;;8.73;99.74;98932.73;110025;1270;22615;-79
2023/11/15 05:13:21;;;;;;;2.10;0.40;;;;;;;8.72;99.92;98936.68;110131;1275;23167;-78
2023/11/15 05:15:55;;;;;;;1.20;0.30;;;;;;;8.72;99.88;98935.77;110164;1270;23072;-80
2023/11/15 05:18:33;;;;;;;4.00;0.30;;;;;;;8.71;99.98;98939.90;110195;1274;22232;-80
2023/11/15 05:21:23;;;;;;;1.40;0.30;;;;;;;8.71;100.00;98945.22;110223;1277;23173;-78
2023/11/15 05:23:55;;;;;;;2.70;0.30;;;;;;;8.69;100.00;98945.75;110031;1273;22321;-78
2023/11/15 05:26:26;;;;;;;1.60;0.40;;;;;;;8.69;100.00;98947.42;110212;1270;22219;-78
2023/11/15 05:28:59;;;;;;;1.50;0.30;;;;;;;8.70;100.00;98949.21;110319;1274;22281;-78
2023/11/15 05:31:52;;;;;;;1.10;0.30;;;;;;;8.70;100.00;98949.77;110408;1268;22807;-79
2023/11/15 05:35:05;;;;;;;1.80;0.30;;;;;;;8.69;100.00;98955.08;110164;1277;22266;-79
2023/11/15 05:37:37;;;;;;;1.30;0.30;;;;;;;8.68;100.00;98963.41;110189;1277;23139;-78
2023/11/15 05:40:12;;;;;;;1.40;0.30;;;;;;;8.68;100.00;98971.05;110182;1271;22275;-79
2023/11/15 05:42:46;;;;;;;2.50;0.30;;;;;;;8.68;100.00;98974.39;110184;1277;22137;-78
2023/11/15 05:45:20;;;;;;;3.20;0.60;;;;;;;8.69;100.00;98977.27;110149;1267;23072;-77
2023/11/15 05:47:59;;;;;;;3.30;0.70;;;;;;;8.70;100.00;98980.02;110215;1275;22262;-77
2023/11/15 05:50:31;;;;;;;3.20;0.40;;;;;;;8.70;100.00;98985.53;110194;1272;23168;-78
2023/11/15 05:53:05;;;;;;;1.90;0.40;;;;;;;8.70;100.00;98988.11;110212;1275;23245;-78
2023/11/15 05:55:39;;;;;;;1.50;0.30;;;;;;;8.70;100.00;98992.40;110447;1271;22866;-79
2023/11/15 05:58:38;;;;;;;2.30;0.30;;;;;;;8.68;100.00;98990.93;110444;1275;22307;-77
2023/11/15 06:01:11;;;;;;;3.60;0.50;;;;;;;8.68;100.00;98996.73;110430;1273;22147;-81
2023/11/15 06:03:43;;;;;;;1.50;0.30;;;;;;;8.69;100.00;98999.84;110401;1274;22376;-79
2023/11/15 06:06:17;;;;;;;1.60;0.40;;;;;;;8.68;100.00;99001.00;110433;1270;22369;-80
2023/11/15 06:08:51;;;;;;;2.40;0.70;;;;;;;8.69;100.00;99009.60;110454;1267;22203;-78
2023/11/15 06:11:26;;;;;;;10.70;2.20;;;;;;;8.70;100.00;99009.77;110391;1274;22659;-78
2023/11/15 06:13:57;;;;;;;6.40;0.90;;;;;;;8.71;100.00;99015.94;110480;1267;23020;-77
2023/11/15 06:16:31;;;;;;;5.90;1.00;;;;;;;8.71;100.00;99014.67;110470;1272;22349;-78
2023/11/15 06:19:06;;;;;;;3.10;1.00;;;;;;;8.70;100.00;99013.52;110458;1274;22799;-78
2023/11/15 06:21:42;;;;;;;4.40;0.90;;;;;;;8.70;100.00;99022.25;110447;1274;22153;-78
2023/11/15 06:24:14;;;;;;;5.10;1.20;;;;;;;8.70;100.00;99021.49;110432;1274;22131;-78
2023/11/15 06:27:30;;;;;;;6.60;1.10;;;;;;;8.71;100.00;99026.46;110440;1274;23098;-80
2023/11/15 06:30:12;;;;;;;5.50;1.20;;;;;;;8.72;100.00;99032.64;110172;1276;22201;-79
2023/11/15 06:33:04;;;;;;;6.70;1.00;;;;;;;8.72;100.00;99040.67;110159;1278;22224;-82
2023/11/15 06:36:02;;;;;;;2.10;0.60;;;;;;;8.72;100.00;99048.84;110132;1272;23092;-79
2023/11/15 06:38:34;;;;;;;3.00;0.80;;;;;;;8.73;100.00;99057.39;110175;1278;22226;-79
2023/11/15 06:41:08;;;;;;;2.90;0.80;;;;;;;8.73;100.00;99061.63;110179;1278;22303;-79
2023/11/15 06:43:41;;;;;;;2.70;0.70;;;;;;;8.75;100.00;99066.95;110198;1273;22292;-79
2023/11/15 06:46:18;;;;;;;3.60;0.90;;;;;;;8.76;100.00;99073.48;110027;1278;22238;-78
2023/11/15 06:48:50;;;;;;;3.40;0.60;;;;;;;8.77;100.00;99076.73;110353;1274;22367;-78
2023/11/15 06:51:32;;;;;;;5.30;0.70;;;;;;;8.78;100.00;99082.20;110460;1274;22228;-79
2023/11/15 06:54:07;;;;;;;2.40;0.50;;;;;;;8.78;100.00;99082.56;110444;1274;22717;-78
2023/11/15 06:56:38;;;;;;;2.20;0.50;;;;;;;8.79;100.00;99088.80;110459;1274;22146;-78
2023/11/15 06:59:12;;;;;;;1.40;0.40;;;;;;;8.80;100.00;99094.27;110444;1267;22317;-78
2023/11/15 07:01:43;;;;;;;3.20;0.60;;;;;;;8.82;100.00;99104.60;110474;1274;22290;-78
2023/11/15 07:04:15;;;;;;;3.50;0.50;;;;;;;8.82;100.00;99114.17;110435;1274;24287;-78
2023/11/15 07:06:47;;;;;;;2.10;0.60;;;;;;;8.83;100.00;99114.79;110445;1267;22206;-78
2023/11/15 07:09:19;;;;;;;2.00;0.50;;;;;;;8.84;100.00;99119.19;110463;1268;22308;-78
2023/11/15 07:11:52;;;;;;;3.50;0.60;;;;;;;8.84;100.00;99124.05;110475;1274;22557;-78
2023/11/15 07:14:26;;;;;;;2.30;0.50;;;;;;;8.86;100.00;99127.05;110383;1274;22183;-81
2023/11/15 07:16:58;;;;;;;2.80;0.70;;;;;;;8.86;100.00;99133.33;110460;1274;22361;-78
2023/11/15 07:19:32;;;;;;;1.40;0.40;;;;;;;8.86;100.00;99135.10;110444;1274;22221;-78
2023/11/15 07:22:04;;;;;;;4.80;0.70;;;;;;;8.86;100.00;99138.20;110456;1274;22160;-80
2023/11/15 07:24:39;;;;;;;2.80;0.70;;;;;;;8.87;100.00;99145.23;110456;1274;22779;-79
2023/11/15 07:27:11;;;;;;;2.60;0.70;;;;;;;8.88;100.00;99145.17;110466;1271;22224;-79
2023/11/15 07:29:45;;;;;;;2.20;0.60;;;;;;;8.88;100.00;99145.69;110481;1274;22352;-78
2023/11/15 07:32:17;;;;;;;3.80;0.60;;;;;;;8.88;100.00;99147.98;110462;1271;23120;-78
2023/11/15 07:34:49;;;;;;;2.60;0.80;;;;;;;8.89;100.00;99155.66;110475;1264;22143;-78
2023/11/15 07:37:20;;;;;;;4.00;0.70;;;;;;;8.89;100.00;99158.80;110476;1259;22327;-78
2023/11/15 07:39:52;;;;;;;3.50;0.80;;;;;;;8.91;100.00;99158.71;110476;1274;22427;-78
2023/11/15 07:42:25;;;;;;;4.40;0.70;;;;;;;8.92;100.00;99159.67;110460;1274;23291;-78
2023/11/15 07:44:57;;;;;;;4.10;0.90;;;;;;;8.92;100.00;99167.84;110455;1274;22151;-78
2023/11/15 07:47:34;;;;;;;3.30;0.80;;;;;;;8.95;100.00;99177.16;110434;1274;22173;-78
2023/11/15 07:50:06;;;;;;;4.20;0.80;;;;;;;8.96;100.00;99177.89;110420;1272;22221;-78
2023/11/15 07:52:45;;;;;;;2.50;0.90;;;;;;;8.98;100.00;99184.23;110449;1270;23004;-78
2023/11/15 07:55:17;;;;;;;5.80;0.90;;;;;;;8.99;100.00;99179.38;110472;1275;22321;-78
2023/11/15 07:57:48;;;;;;;2.80;0.70;;;;;;;9.01;100.00;99186.33;110442;1274;22720;-78
2023/11/15 08:00:23;;;;;;;7.30;0.90;;;;;;;9.04;100.00;99186.25;110432;1272;23100;-78
2023/11/15 08:02:54;;;;;;;3.80;1.20;;;;;;;9.06;100.00;99191.99;110481;1268;23024;-79
2023/11/15 08:05:27;;;;;;;4.00;1.10;;;;;;;9.09;100.00;99191.41;110467;1275;22325;-78
2023/11/15 08:07:58;;;;;;;3.20;0.90;;;;;;;9.12;100.00;99204.15;110467;1268;22174;-78
2023/11/15 08:10:31;;;;;;;4.20;0.90;;;;;;;9.16;100.00;99210.45;110468;1274;22185;-78
2023/11/15 08:13:04;;;;;;;4.00;1.00;;;;;;;9.19;100.00;99220.65;110441;1262;22351;-78
2023/11/15 08:15:37;;;;;;;4.80;0.90;;;;;;;9.22;100.00;99220.42;110472;1272;22357;-78
2023/11/15 08:18:08;;;;;;;3.10;0.80;;;;;;;9.25;100.00;99225.86;110447;1275;22157;-79
2023/11/15 08:20:43;;;;;;;4.10;1.00;;;;;;;9.27;100.00;99229.32;110462;1274;22251;-78
2023/11/15 08:23:15;;;;;;;4.70;1.10;;;;;;;9.29;100.00;99235.71;110432;1274;22241;-78
2023/11/15 08:25:50;;;;;;;6.00;1.40;;;;;;;9.29;100.00;99243.06;110481;1274;22186;-78
2023/11/15 08:28:21;;;;;;;5.60;1.10;;;;;;;9.29;100.00;99245.64;110429;1272;22167;-80
2023/11/15 08:30:58;;;;;;;4.40;1.00;;;;;;;9.28;100.00;99247.71;110497;1274;22415;-79
2023/11/15 08:33:31;;;;;;;5.00;0.90;;;;;;;9.27;100.00;99248.16;110415;1268;22984;-78
2023/11/15 08:36:15;;;;;;;3.90;0.90;;;;;;;9.27;100.00;99250.80;110473;1274;22599;-80
2023/11/15 08:38:47;;;;;;;3.20;0.80;;;;;;;9.26;100.00;99253.37;110447;1268;22969;-78
2023/11/15 08:41:19;;;;;;;3.10;0.70;;;;;;;9.25;100.00;99258.17;110461;1268;22322;-79
2023/11/15 08:43:52;;;;;;;3.70;0.90;;;;;;;9.23;100.00;99262.82;110504;1271;22807;-78
2023/11/15 08:46:44;;;;;;;2.60;0.70;;;;;;;9.22;100.00;99270.45;110487;1274;23419;-78
2023/11/15 08:49:24;;;;;;;4.90;1.00;;;;;;;9.21;100.00;99269.38;110113;1278;22227;-78
2023/11/15 08:51:57;;;;;;;3.90;1.00;;;;;;;9.22;100.00;99269.89;110176;1278;22230;-78
2023/11/15 08:54:49;;;;;;;4.70;0.90;;;;;;;9.23;100.00;99276.99;110106;1278;22184;-78
2023/11/15 08:57:21;;;;;;;4.50;0.70;;;;;;;9.25;100.00;99283.79;110189;1272;22191;-78
2023/11/15 08:59:53;;;;;;;4.50;0.70;;;;;;;9.26;100.00;99288.87;110023;1278;22683;-78
2023/11/15 09:02:47;;;;;;;5.10;0.80;;;;;;;9.29;100.00;99299.52;110167;1265;22330;-78
2023/11/15 09:05:22;;;;;;;3.90;0.80;;;;;;;9.31;100.00;99306.98;109946;1273;23083;-78
2023/11/15 09:07:55;;;;;;;2.40;0.70;;;;;;;9.31;100.00;99306.83;110114;1277;22232;-78
2023/11/15 09:10:28;;;;;;;3.60;0.50;;;;;;;9.33;100.00;99306.95;110189;1277;22195;-78
2023/11/15 09:13:01;;;;;;;4.70;0.60;;;;;;;9.35;100.00;99300.73;110190;1274;23164;-78
2023/11/15 09:15:34;;;;;;;2.70;0.60;;;;;;;9.36;100.00;99296.84;110214;1270;22336;-78
2023/11/15 09:18:06;;;;;;;2.20;0.40;;;;;;;9.37;100.00;99299.39;110226;1278;23042;-78
2023/11/15 09:20:41;;;;;;;3.70;0.50;;;;;;;9.40;100.00;99298.41;110248;1278;22188;-79
2023/11/15 09:23:13;;;;;;;2.40;0.60;;;;;;;9.43;100.00;99302.48;110270;1275;22122;-78
2023/11/15 09:25:49;;;;;;;2.90;0.70;;;;;;;9.46;100.00;99304.63;110473;1274;22154;-78
2023/11/15 09:28:22;;;;;;;4.50;1.30;;;;;;;9.50;100.00;99303.20;110474;1267;22345;-78
2023/11/15 09:30:54;;;;;;;3.90;0.60;;;;;;;9.53;100.00;99304.28;110468;1274;22350;-79
2023/11/15 09:33:29;;;;;;;2.80;0.50;;;;;;;9.54;100.00;99302.82;110427;1275;22172;-78
2023/11/15 09:36:01;;;;;;;4.10;0.50;;;;;;;9.56;100.00;99310.27;110487;1274;22138;-78
2023/11/15 09:38:33;;;;;;;3.10;0.70;;;;;;;9.57;100.00;99310.05;110460;1274;22404;-78
2023/11/15 09:41:11;;;;;;;3.40;0.70;;;;;;;9.57;100.00;99314.14;110465;1274;22300;-80
2023/11/15 09:43:51;;;;;;;4.70;0.60;;;;;;;9.54;100.00;99327.45;110467;1274;22882;-79
2023/11/15 09:47:08;;;;;;;3.40;0.60;;;;;;;9.49;100.00;99324.01;110527;1274;22870;-80
2023/11/15 09:50:07;;;;;;;3.00;0.60;;;;;;;9.44;100.00;99329.44;110167;1275;23195;-80
2023/11/15 09:52:39;;;;;;;4.10;0.60;;;;;;;9.41;100.00;99335.18;110155;1278;22198;-79
2023/11/15 09:56:15;;;;;;;2.10;0.60;;;;;;;9.37;100.00;99337.27;110140;1278;22245;-81
2023/11/15 09:59:47;;;;;;;5.80;0.70;;;;;;;9.34;100.00;99331.77;109930;1282;22199;-80
2023/11/15 10:02:45;;;;;;;4.50;0.70;;;;;;;9.30;100.00;99327.08;109772;1284;22310;-81
2023/11/15 10:05:20;;;;;;;1.70;0.50;;;;;;;9.27;100.00;99330.95;109724;1284;22370;-81
2023/11/15 10:08:11;;;;;;;4.90;0.90;;;;;;;9.23;100.00;99327.77;109756;1284;22291;-79
2023/11/15 10:11:09;;;;;;;3.70;0.70;;;;;;;9.20;100.00;99333.27;109763;1284;22220;-78
2023/11/15 10:14:22;;;;;;;4.00;0.70;;;;;;;9.21;100.00;99330.84;109828;1281;22337;-80
2023/11/15 10:17:03;;;;;;;3.20;0.60;;;;;;;9.21;100.00;99331.10;109924;1281;22207;-78
2023/11/15 10:19:34;;;;;;;4.40;1.00;;;;;;;9.23;100.00;99331.77;109963;1277;22399;-78
2023/11/15 10:22:07;;;;;;;4.90;0.80;;;;;;;9.25;100.00;99335.59;110237;1277;22930;-78
2023/11/15 10:24:41;;;;;;;4.40;0.80;;;;;;;9.26;100.00;99344.01;110469;1274;22179;-78
2023/11/15 10:27:14;;;;;;;2.40;0.50;;;;;;;9.28;100.00;99351.52;110488;1274;22226;-78
2023/11/15 10:29:50;;;;;;;4.40;0.50;;;;;;;9.29;100.00;99359.17;110482;1267;22210;-78
2023/11/15 10:32:23;;;;;;;8.40;0.70;;;;;;;9.30;100.00;99363.34;110450;1274;22365;-79
2023/11/15 10:34:55;;;;;;;3.50;0.50;;;;;;;9.30;100.00;99367.70;110477;1275;23283;-79
2023/11/15 10:37:54;;;;;;;2.90;0.50;;;;;;;9.30;100.00;99369.45;110472;1269;23055;-78
2023/11/15 10:40:29;;;;;;;2.00;0.40;;;;;;;9.30;100.00;99377.67;110495;1262;22907;-79
2023/11/15 10:43:02;;;;;;;5.30;0.50;;;;;;;9.28;100.00;99378.42;110451;1275;22317;-79
2023/11/15 10:45:38;;;;;;;4.50;0.50;;;;;;;9.29;100.00;99380.95;110477;1274;22133;-78
2023/11/15 10:48:15;;;;;;;2.80;0.60;;;;;;;9.30;100.00;99383.58;110471;1274;22184;-78
2023/11/15 10:50:50;;;;;;;2.00;0.40;;;;;;;9.31;100.00;99384.36;110494;1274;22174;-78
2023/11/15 10:53:24;;;;;;;1.60;0.40;;;;;;;9.34;99.93;99389.91;110459;1271;22831;-78
2023/11/15 10:55:58;;;;;;;1.70;0.30;;;;;;;9.35;99.34;99389.37;110516;1271;22163;-78
2023/11/15 10:58:30;;;;;;;2.60;0.30;;;;;;;9.35;98.74;99394.88;110457;1274;22148;-79
2023/11/15 11:01:06;;;;;;;1.50;0.20;;;;;;;9.33;98.15;99399.06;110459;1271;22178;-79
2023/11/15 11:03:40;;;;;;;3.40;0.20;;;;;;;9.31;98.21;99403.77;110448;1274;22809;-79
2023/11/15 11:06:18;;;;;;;1.60;0.20;;;;;;;9.31;98.07;99405.63;110412;1274;22187;-78
2023/11/15 11:09:04;;;;;;;2.20;0.20;;;;;;;9.33;98.19;99403.22;110463;1274;22211;-78
2023/11/15 11:11:43;;;;;;;1.20;0.10;;;;;;;9.34;96.71;99406.68;110469;1275;22209;-79
2023/11/15 11:14:20;;;;;;;1.80;0.20;;;;;;;9.34;96.24;99415.70;110499;1275;23037;-78
2023/11/15 11:16:52;;;;;;;1.00;0.20;;;;;;;9.35;96.10;99421.27;110466;1274;22207;-79
2023/11/15 11:19:25;;;;;;;2.30;0.20;;;;;;;9.36;95.96;99431.82;110454;1262;22179;-78
2023/11/15 11:22:12;;;;;;;0.80;0.20;;;;;;;9.36;95.23;99434.95;110456;1274;22157;-78
2023/11/15 11:25:06;;;;;;;0.60;0.10;;;;;;;9.34;95.12;99436.50;110429;1274;22989;-78
2023/11/15 11:27:42;;;;;;;1.00;0.10;;;;;;;9.30;94.81;99439.55;110464;1274;22739;-78
2023/11/15 11:30:20;;;;;;;0.40;0.10;;;;;;;9.29;94.34;99440.70;110481;1267;22291;-79
2023/11/15 11:33:13;;;;;;;1.10;0.20;;;;;;;9.28;94.69;99448.48;110446;1274;22371;-78
2023/11/15 11:35:48;;;;;;;1.40;0.10;;;;;;;9.26;94.49;99444.98;110473;1274;22202;-78
2023/11/15 11:38:43;;;;;;;0.90;0.20;;;;;;;9.24;93.96;99447.23;110457;1274;23074;-78
2023/11/15 11:41:14;;;;;;;0.50;0.20;;;;;;;9.21;93.72;99447.05;110493;1274;22868;-79
2023/11/15 11:43:56;;;;;;;0.50;0.10;;;;;;;9.19;93.91;99450.11;110492;1274;22235;-77
2023/11/15 11:46:30;;;;;;;1.80;0.20;;;;;;;9.18;93.80;99454.45;110490;1274;22179;-77
2023/11/15 11:49:03;;;;;;;0.80;0.20;;;;;;;9.19;93.53;99457.04;110513;1274;22211;-77
2023/11/15 11:51:35;;;;;;;1.80;0.20;;;;;;;9.20;92.82;99470.58;110480;1274;22888;-77
2023/11/15 11:54:19;;;;;;;1.00;0.10;;;;;;;9.20;92.81;99474.18;110466;1274;22138;-78
2023/11/15 11:56:51;;;;;;;0.90;0.20;;;;;;;9.20;93.50;99481.57;110476;1269;23012;-78
2023/11/15 11:59:28;;;;;;;2.00;0.20;;;;;;;9.20;93.09;99486.09;110480;1274;22158;-78
2023/11/15 12:02:00;;;;;;;0.60;0.10;;;;;;;9.19;93.00;99483.98;110448;1274;22192;-78
2023/11/15 12:04:45;;;;;;;0.90;0.10;;;;;;;9.17;92.45;99490.71;110426;1275;22186;-78
2023/11/15 12:07:18;;;;;;;1.90;0.10;;;;;;;9.17;92.42;99495.80;110472;1274;22218;-78
2023/11/15 12:09:49;;;;;;;0.90;0.20;;;;;;;9.18;91.92;99500.78;106278;1274;5465112;-77
2023/11/15 12:12:22;;;;;;;0.70;0.10;;;;;;;9.20;91.11;99506.57;110459;1274;22376;-79
2023/11/15 12:14:59;;;;;;;0.50;0.10;;;;;;;9.20;90.72;99509.98;110454;1268;22274;-78
2023/11/15 12:17:44;;;;;;;0.70;0.10;;;;;;;9.20;89.82;99512.55;110463;1274;22212;-78
2023/11/15 12:20:26;;;;;;;1.80;0.20;;;;;;;9.19;90.44;99517.03;110465;1268;22158;-78
2023/11/15 12:23:08;;;;;;;0.70;0.10;;;;;;;9.16;89.76;99526.98;110460;1271;23030;-77
2023/11/15 12:25:48;;;;;;;1.40;0.20;;;;;;;9.14;90.72;99528.86;110481;1274;22703;-79
2023/11/15 12:28:21;;;;;;;0.80;0.20;;;;;;;9.11;90.11;99533.59;110479;1262;22302;-77
2023/11/15 12:30:54;;;;;;;1.10;0.20;;;;;;;9.09;90.67;99533.77;110469;1275;22200;-78
2023/11/15 12:33:26;;;;;;;0.40;0.10;;;;;;;9.08;90.80;99534.71;110453;1271;23154;-80
2023/11/15 12:35:58;;;;;;;1.50;0.30;;;;;;;9.08;91.14;99538.61;110478;1274;22203;-78
2023/11/15 12:38:30;;;;;;;2.60;0.30;;;;;;;9.08;91.11;99544.75;110460;1262;22140;-78
2023/11/15 12:41:08;;;;;;;1.40;0.30;;;;;;;9.09;91.03;99549.16;110469;1274;22191;-78
2023/11/15 12:43:40;;;;;;;1.10;0.20;;;;;;;9.10;91.54;99555.11;110465;1270;22158;-77
2023/11/15 12:46:20;;;;;;;1.10;0.30;;;;;;;9.11;91.42;99554.40;110491;1274;22186;-78
2023/11/15 12:48:52;;;;;;;1.40;0.20;;;;;;;9.13;91.37;99558.78;110484;1272;22197;-77
2023/11/15 12:51:24;;;;;;;0.90;0.20;;;;;;;9.13;90.18;99563.54;110433;1271;22108;-77